sensor_id;sensor_type;location;lat;lon;timestamp;P1;durP1;ratioP1;P2;durP2;ratioP2
47413;SDS011;33163;0.000;0.000;2023-03-23T00:02:19;3.03;;;1.40;;
47413;SDS011;33163;0.000;0.000;2023-03-23T00:04:45;4.10;;;1.27;;
47413;SDS011;33163;0.000;0.000;2023-03-23T00:07:14;1.80;;;1.27;;
47413;SDS011;33163;0.000;0.000;2023-03-23T00:09:46;3.78;;;1.45;;
47413;SDS011;33163;0.000;0.000;2023-03-23T00:12:14;4.78;;;1.88;;
47413;SDS011;33163;0.000;0.000;2023-03-23T00:14:41;2.85;;;1.20;;
47413;SDS011;33163;0.000;0.000;2023-03-23T00:17:08;3.38;;;1.63;;
47413;SDS011;33163;0.000;0.000;2023-03-23T00:19:36;4.00;;;1.33;;
47413;SDS011;33163;0.000;0.000;2023-03-23T00:22:10;3.35;;;1.48;;
47413;SDS011;33163;0.000;0.000;2023-03-23T00:24:38;3.08;;;1.40;;
47413;SDS011;33163;0.000;0.000;2023-03-23T00:27:05;2.70;;;1.13;;
47413;SDS011;33163;0.000;0.000;2023-03-23T00:29:34;1.60;;;1.10;;
47413;SDS011;33163;0.000;0.000;2023-03-23T00:32:01;4.53;;;1.63;;
47413;SDS011;33163;0.000;0.000;2023-03-23T00:34:28;1.95;;;1.15;;
47413;SDS011;33163;0.000;0.000;2023-03-23T00:36:57;4.28;;;1.30;;
47413;SDS011;33163;0.000;0.000;2023-03-23T00:39:24;3.75;;;1.15;;
47413;SDS011;33163;0.000;0.000;2023-03-23T00:41:53;3.55;;;1.55;;
47413;SDS011;33163;0.000;0.000;2023-03-23T00:44:25;3.08;;;1.52;;
47413;SDS011;33163;0.000;0.000;2023-03-23T00:46:54;1.63;;;1.10;;
47413;SDS011;33163;0.000;0.000;2023-03-23T00:49:22;3.83;;;1.52;;
47413;SDS011;33163;0.000;0.000;2023-03-23T00:51:50;5.70;;;1.63;;
47413;SDS011;33163;0.000;0.000;2023-03-23T00:54:18;3.28;;;1.25;;
47413;SDS011;33163;0.000;0.000;2023-03-23T00:56:45;1.83;;;1.40;;
47413;SDS011;33163;0.000;0.000;2023-03-23T00:59:11;1.85;;;1.10;;
47413;SDS011;33163;0.000;0.000;2023-03-23T01:01:39;4.88;;;1.75;;
47413;SDS011;33163;0.000;0.000;2023-03-23T01:04:07;1.65;;;1.00;;
47413;SDS011;33163;0.000;0.000;2023-03-23T01:06:37;3.55;;;0.90;;
47413;SDS011;33163;0.000;0.000;2023-03-23T01:09:06;2.70;;;1.40;;
47413;SDS011;33163;0.000;0.000;2023-03-23T01:11:34;2.55;;;1.23;;
47413;SDS011;33163;0.000;0.000;2023-03-23T01:14:02;3.25;;;1.23;;
47413;SDS011;33163;0.000;0.000;2023-03-23T01:16:30;3.35;;;1.80;;
47413;SDS011;33163;0.000;0.000;2023-03-23T01:18:56;2.15;;;1.08;;
47413;SDS011;33163;0.000;0.000;2023-03-23T01:21:24;1.65;;;1.20;;
47413;SDS011;33163;0.000;0.000;2023-03-23T01:23:51;4.70;;;1.23;;
47413;SDS011;33163;0.000;0.000;2023-03-23T01:26:19;2.28;;;0.90;;
47413;SDS011;33163;0.000;0.000;2023-03-23T01:28:47;2.33;;;0.98;;
47413;SDS011;33163;0.000;0.000;2023-03-23T01:31:15;2.53;;;0.95;;
47413;SDS011;33163;0.000;0.000;2023-03-23T01:33:43;5.07;;;1.88;;
47413;SDS011;33163;0.000;0.000;2023-03-23T01:36:11;1.75;;;1.00;;
47413;SDS011;33163;0.000;0.000;2023-03-23T01:38:40;1.98;;;1.10;;
47413;SDS011;33163;0.000;0.000;2023-03-23T01:41:08;1.80;;;1.50;;
47413;SDS011;33163;0.000;0.000;2023-03-23T01:43:36;3.60;;;0.98;;
47413;SDS011;33163;0.000;0.000;2023-03-23T01:46:19;1.85;;;1.45;;
47413;SDS011;33163;0.000;0.000;2023-03-23T01:48:47;1.42;;;1.10;;
47413;SDS011;33163;0.000;0.000;2023-03-23T01:51:15;3.97;;;1.33;;
47413;SDS011;33163;0.000;0.000;2023-03-23T01:53:47;3.45;;;0.93;;
47413;SDS011;33163;0.000;0.000;2023-03-23T01:56:18;2.35;;;1.27;;
47413;SDS011;33163;0.000;0.000;2023-03-23T01:58:50;1.80;;;0.88;;
47413;SDS011;33163;0.000;0.000;2023-03-23T02:01:17;2.50;;;1.17;;
47413;SDS011;33163;0.000;0.000;2023-03-23T02:03:46;1.80;;;1.10;;
47413;SDS011;33163;0.000;0.000;2023-03-23T02:06:14;2.38;;;0.90;;
47413;SDS011;33163;0.000;0.000;2023-03-23T02:08:41;1.92;;;1.00;;
47413;SDS011;33163;0.000;0.000;2023-03-23T02:11:13;2.65;;;1.10;;
47413;SDS011;33163;0.000;0.000;2023-03-23T02:13:40;2.13;;;1.40;;
47413;SDS011;33163;0.000;0.000;2023-03-23T02:16:08;1.70;;;1.02;;
47413;SDS011;33163;0.000;0.000;2023-03-23T02:18:40;2.22;;;1.40;;
47413;SDS011;33163;0.000;0.000;2023-03-23T02:30:47;3.47;;;1.13;;
47413;SDS011;33163;0.000;0.000;2023-03-23T02:33:30;1.83;;;1.17;;
47413;SDS011;33163;0.000;0.000;2023-03-23T02:36:03;3.63;;;1.40;;
47413;SDS011;33163;0.000;0.000;2023-03-23T02:38:37;2.95;;;1.00;;
47413;SDS011;33163;0.000;0.000;2023-03-23T02:41:08;1.55;;;1.00;;
47413;SDS011;33163;0.000;0.000;2023-03-23T02:43:38;3.08;;;1.00;;
47413;SDS011;33163;0.000;0.000;2023-03-23T02:46:09;2.55;;;1.10;;
47413;SDS011;33163;0.000;0.000;2023-03-23T02:48:38;1.58;;;0.80;;
47413;SDS011;33163;0.000;0.000;2023-03-23T02:51:06;1.98;;;1.45;;
47413;SDS011;33163;0.000;0.000;2023-03-23T02:53:36;0.88;;;0.73;;
47413;SDS011;33163;0.000;0.000;2023-03-23T02:56:05;1.42;;;1.05;;
47413;SDS011;33163;0.000;0.000;2023-03-23T02:58:35;1.85;;;1.10;;
47413;SDS011;33163;0.000;0.000;2023-03-23T03:01:14;2.08;;;0.90;;
47413;SDS011;33163;0.000;0.000;2023-03-23T03:03:59;1.15;;;1.05;;
47413;SDS011;33163;0.000;0.000;2023-03-23T03:06:31;2.13;;;1.48;;
47413;SDS011;33163;0.000;0.000;2023-03-23T03:09:02;1.92;;;1.05;;
47413;SDS011;33163;0.000;0.000;2023-03-23T03:11:37;0.88;;;0.80;;
47413;SDS011;33163;0.000;0.000;2023-03-23T03:14:07;0.80;;;0.80;;
47413;SDS011;33163;0.000;0.000;2023-03-23T03:16:37;0.90;;;0.90;;
47413;SDS011;33163;0.000;0.000;2023-03-23T03:19:09;2.38;;;1.20;;
47413;SDS011;33163;0.000;0.000;2023-03-23T03:21:40;2.17;;;0.90;;
47413;SDS011;33163;0.000;0.000;2023-03-23T03:24:08;1.55;;;0.95;;
47413;SDS011;33163;0.000;0.000;2023-03-23T03:26:38;4.22;;;1.60;;
47413;SDS011;33163;0.000;0.000;2023-03-23T03:29:12;3.10;;;1.20;;
47413;SDS011;33163;0.000;0.000;2023-03-23T03:31:42;2.00;;;1.00;;
47413;SDS011;33163;0.000;0.000;2023-03-23T03:34:14;1.85;;;1.30;;
47413;SDS011;33163;0.000;0.000;2023-03-23T03:36:43;4.57;;;1.02;;
47413;SDS011;33163;0.000;0.000;2023-03-23T03:39:12;2.55;;;1.17;;
47413;SDS011;33163;0.000;0.000;2023-03-23T03:41:42;4.10;;;1.20;;
47413;SDS011;33163;0.000;0.000;2023-03-23T03:44:12;2.50;;;1.38;;
47413;SDS011;33163;0.000;0.000;2023-03-23T03:46:40;3.85;;;1.50;;
47413;SDS011;33163;0.000;0.000;2023-03-23T03:49:08;2.28;;;1.38;;
47413;SDS011;33163;0.000;0.000;2023-03-23T03:51:39;2.58;;;1.15;;
47413;SDS011;33163;0.000;0.000;2023-03-23T03:54:06;2.58;;;1.00;;
47413;SDS011;33163;0.000;0.000;2023-03-23T03:56:33;2.25;;;1.10;;
47413;SDS011;33163;0.000;0.000;2023-03-23T03:59:02;3.58;;;1.58;;
47413;SDS011;33163;0.000;0.000;2023-03-23T04:01:29;3.22;;;1.10;;
47413;SDS011;33163;0.000;0.000;2023-03-23T04:03:56;3.35;;;1.02;;
47413;SDS011;33163;0.000;0.000;2023-03-23T04:06:23;1.90;;;0.93;;
47413;SDS011;33163;0.000;0.000;2023-03-23T04:08:54;1.58;;;1.20;;
47413;SDS011;33163;0.000;0.000;2023-03-23T04:11:20;2.05;;;0.82;;
47413;SDS011;33163;0.000;0.000;2023-03-23T04:13:47;1.73;;;1.02;;
47413;SDS011;33163;0.000;0.000;2023-03-23T04:16:14;1.38;;;0.88;;
47413;SDS011;33163;0.000;0.000;2023-03-23T04:18:41;2.63;;;1.20;;
47413;SDS011;33163;0.000;0.000;2023-03-23T04:21:09;3.22;;;1.25;;
47413;SDS011;33163;0.000;0.000;2023-03-23T04:23:38;3.00;;;1.27;;
47413;SDS011;33163;0.000;0.000;2023-03-23T04:26:08;2.58;;;0.80;;
47413;SDS011;33163;0.000;0.000;2023-03-23T04:28:38;2.00;;;1.10;;
47413;SDS011;33163;0.000;0.000;2023-03-23T04:31:06;2.25;;;1.08;;
47413;SDS011;33163;0.000;0.000;2023-03-23T04:33:34;1.80;;;1.05;;
47413;SDS011;33163;0.000;0.000;2023-03-23T04:36:02;2.25;;;1.00;;
47413;SDS011;33163;0.000;0.000;2023-03-23T04:38:31;2.47;;;1.20;;
47413;SDS011;33163;0.000;0.000;2023-03-23T04:40:59;2.20;;;1.13;;
47413;SDS011;33163;0.000;0.000;2023-03-23T04:43:28;5.57;;;1.42;;
47413;SDS011;33163;0.000;0.000;2023-03-23T04:45:58;2.40;;;1.05;;
47413;SDS011;33163;0.000;0.000;2023-03-23T04:48:27;2.40;;;1.15;;
47413;SDS011;33163;0.000;0.000;2023-03-23T04:50:58;5.18;;;1.20;;
47413;SDS011;33163;0.000;0.000;2023-03-23T04:53:27;6.82;;;1.77;;
47413;SDS011;33163;0.000;0.000;2023-03-23T04:55:54;2.78;;;1.10;;
47413;SDS011;33163;0.000;0.000;2023-03-23T04:58:21;4.05;;;1.30;;
47413;SDS011;33163;0.000;0.000;2023-03-23T05:00:51;3.75;;;1.23;;
47413;SDS011;33163;0.000;0.000;2023-03-23T05:03:17;3.30;;;1.23;;
47413;SDS011;33163;0.000;0.000;2023-03-23T05:05:45;4.10;;;1.08;;
47413;SDS011;33163;0.000;0.000;2023-03-23T05:08:16;2.55;;;1.10;;
47413;SDS011;33163;0.000;0.000;2023-03-23T05:10:49;3.78;;;1.38;;
47413;SDS011;33163;0.000;0.000;2023-03-23T05:13:17;3.20;;;1.30;;
47413;SDS011;33163;0.000;0.000;2023-03-23T05:15:43;4.60;;;1.40;;
47413;SDS011;33163;0.000;0.000;2023-03-23T05:18:12;2.33;;;1.00;;
47413;SDS011;33163;0.000;0.000;2023-03-23T05:20:39;3.40;;;1.42;;
47413;SDS011;33163;0.000;0.000;2023-03-23T05:23:06;3.63;;;1.40;;
47413;SDS011;33163;0.000;0.000;2023-03-23T05:25:34;3.75;;;1.73;;
47413;SDS011;33163;0.000;0.000;2023-03-23T05:28:05;6.88;;;1.33;;
47413;SDS011;33163;0.000;0.000;2023-03-23T05:30:32;3.10;;;1.63;;
47413;SDS011;33163;0.000;0.000;2023-03-23T05:32:58;5.57;;;1.70;;
47413;SDS011;33163;0.000;0.000;2023-03-23T05:35:26;4.55;;;1.40;;
47413;SDS011;33163;0.000;0.000;2023-03-23T05:37:53;3.42;;;1.33;;
47413;SDS011;33163;0.000;0.000;2023-03-23T05:40:21;3.58;;;1.65;;
47413;SDS011;33163;0.000;0.000;2023-03-23T05:42:50;3.40;;;1.10;;
47413;SDS011;33163;0.000;0.000;2023-03-23T05:45:18;5.93;;;1.55;;
47413;SDS011;33163;0.000;0.000;2023-03-23T05:47:45;2.88;;;0.90;;
47413;SDS011;33163;0.000;0.000;2023-03-23T05:50:13;3.63;;;1.10;;
47413;SDS011;33163;0.000;0.000;2023-03-23T05:52:41;3.47;;;1.40;;
47413;SDS011;33163;0.000;0.000;2023-03-23T05:55:08;5.70;;;1.50;;
47413;SDS011;33163;0.000;0.000;2023-03-23T05:57:36;3.72;;;1.50;;
47413;SDS011;33163;0.000;0.000;2023-03-23T06:00:03;4.75;;;1.48;;
47413;SDS011;33163;0.000;0.000;2023-03-23T06:02:38;5.35;;;1.85;;
47413;SDS011;33163;0.000;0.000;2023-03-23T06:05:08;3.55;;;1.27;;
47413;SDS011;33163;0.000;0.000;2023-03-23T06:07:35;6.65;;;1.58;;
47413;SDS011;33163;0.000;0.000;2023-03-23T06:10:04;4.13;;;1.42;;
47413;SDS011;33163;0.000;0.000;2023-03-23T06:12:34;5.97;;;1.70;;
47413;SDS011;33163;0.000;0.000;2023-03-23T06:15:00;4.53;;;2.08;;
47413;SDS011;33163;0.000;0.000;2023-03-23T06:17:27;2.67;;;1.08;;
47413;SDS011;33163;0.000;0.000;2023-03-23T06:19:54;6.13;;;1.67;;
47413;SDS011;33163;0.000;0.000;2023-03-23T06:22:21;2.38;;;1.17;;
47413;SDS011;33163;0.000;0.000;2023-03-23T06:24:48;3.65;;;1.65;;
47413;SDS011;33163;0.000;0.000;2023-03-23T06:27:16;3.33;;;1.33;;
47413;SDS011;33163;0.000;0.000;2023-03-23T06:29:43;6.65;;;1.42;;
47413;SDS011;33163;0.000;0.000;2023-03-23T06:32:10;6.50;;;1.80;;
47413;SDS011;33163;0.000;0.000;2023-03-23T06:34:39;9.80;;;2.20;;
47413;SDS011;33163;0.000;0.000;2023-03-23T06:37:08;5.57;;;1.95;;
47413;SDS011;33163;0.000;0.000;2023-03-23T06:39:36;6.78;;;1.58;;
47413;SDS011;33163;0.000;0.000;2023-03-23T06:42:03;13.30;;;2.05;;
47413;SDS011;33163;0.000;0.000;2023-03-23T06:44:31;8.55;;;2.05;;
47413;SDS011;33163;0.000;0.000;2023-03-23T06:46:58;8.40;;;2.20;;
47413;SDS011;33163;0.000;0.000;2023-03-23T06:49:25;8.02;;;1.67;;
47413;SDS011;33163;0.000;0.000;2023-03-23T06:51:52;5.43;;;2.03;;
47413;SDS011;33163;0.000;0.000;2023-03-23T06:54:21;10.73;;;2.33;;
47413;SDS011;33163;0.000;0.000;2023-03-23T06:56:47;7.22;;;2.03;;
47413;SDS011;33163;0.000;0.000;2023-03-23T06:59:14;14.70;;;2.55;;
47413;SDS011;33163;0.000;0.000;2023-03-23T07:01:42;11.00;;;2.25;;
47413;SDS011;33163;0.000;0.000;2023-03-23T07:04:09;4.32;;;1.60;;
47413;SDS011;33163;0.000;0.000;2023-03-23T07:06:36;6.35;;;2.60;;
47413;SDS011;33163;0.000;0.000;2023-03-23T07:09:03;7.38;;;1.90;;
47413;SDS011;33163;0.000;0.000;2023-03-23T07:11:30;10.38;;;2.55;;
47413;SDS011;33163;0.000;0.000;2023-03-23T07:13:57;11.05;;;2.58;;
47413;SDS011;33163;0.000;0.000;2023-03-23T07:16:24;7.22;;;2.50;;
47413;SDS011;33163;0.000;0.000;2023-03-23T07:18:53;5.40;;;2.05;;
47413;SDS011;33163;0.000;0.000;2023-03-23T07:21:20;6.60;;;2.08;;
47413;SDS011;33163;0.000;0.000;2023-03-23T07:23:46;12.95;;;2.10;;
47413;SDS011;33163;0.000;0.000;2023-03-23T07:26:13;8.95;;;2.53;;
47413;SDS011;33163;0.000;0.000;2023-03-23T07:28:40;9.63;;;2.35;;
47413;SDS011;33163;0.000;0.000;2023-03-23T07:31:07;6.82;;;1.95;;
47413;SDS011;33163;0.000;0.000;2023-03-23T07:33:34;7.00;;;1.77;;
47413;SDS011;33163;0.000;0.000;2023-03-23T07:36:02;8.85;;;1.90;;
47413;SDS011;33163;0.000;0.000;2023-03-23T07:38:30;11.10;;;2.78;;
47413;SDS011;33163;0.000;0.000;2023-03-23T07:40:57;7.20;;;1.75;;
47413;SDS011;33163;0.000;0.000;2023-03-23T07:43:23;11.15;;;2.35;;
47413;SDS011;33163;0.000;0.000;2023-03-23T07:45:51;11.05;;;2.40;;
47413;SDS011;33163;0.000;0.000;2023-03-23T07:48:18;7.10;;;1.90;;
47413;SDS011;33163;0.000;0.000;2023-03-23T07:50:45;10.68;;;1.90;;
47413;SDS011;33163;0.000;0.000;2023-03-23T07:53:13;13.48;;;2.88;;
47413;SDS011;33163;0.000;0.000;2023-03-23T07:55:40;8.00;;;1.90;;
47413;SDS011;33163;0.000;0.000;2023-03-23T07:58:07;6.28;;;2.42;;
47413;SDS011;33163;0.000;0.000;2023-03-23T08:00:33;7.47;;;1.98;;
47413;SDS011;33163;0.000;0.000;2023-03-23T08:03:00;9.98;;;2.00;;
47413;SDS011;33163;0.000;0.000;2023-03-23T08:05:31;6.18;;;2.00;;
47413;SDS011;33163;0.000;0.000;2023-03-23T08:07:59;13.32;;;2.22;;
47413;SDS011;33163;0.000;0.000;2023-03-23T08:10:27;9.68;;;1.95;;
47413;SDS011;33163;0.000;0.000;2023-03-23T08:12:55;8.25;;;2.22;;
47413;SDS011;33163;0.000;0.000;2023-03-23T08:15:24;10.65;;;2.13;;
47413;SDS011;33163;0.000;0.000;2023-03-23T08:17:51;6.45;;;2.28;;
47413;SDS011;33163;0.000;0.000;2023-03-23T08:20:18;10.32;;;2.00;;
47413;SDS011;33163;0.000;0.000;2023-03-23T08:22:50;10.23;;;2.95;;
47413;SDS011;33163;0.000;0.000;2023-03-23T08:25:18;8.32;;;2.17;;
47413;SDS011;33163;0.000;0.000;2023-03-23T08:27:47;11.57;;;2.50;;
47413;SDS011;33163;0.000;0.000;2023-03-23T08:30:15;10.05;;;2.17;;
47413;SDS011;33163;0.000;0.000;2023-03-23T08:32:44;10.43;;;2.95;;
47413;SDS011;33163;0.000;0.000;2023-03-23T08:35:12;8.75;;;2.60;;
47413;SDS011;33163;0.000;0.000;2023-03-23T08:37:41;8.45;;;2.75;;
47413;SDS011;33163;0.000;0.000;2023-03-23T08:40:09;7.50;;;2.30;;
47413;SDS011;33163;0.000;0.000;2023-03-23T08:42:40;10.30;;;2.20;;
47413;SDS011;33163;0.000;0.000;2023-03-23T08:45:10;9.82;;;2.45;;
47413;SDS011;33163;0.000;0.000;2023-03-23T08:47:40;6.70;;;2.25;;
47413;SDS011;33163;0.000;0.000;2023-03-23T08:50:07;11.05;;;2.60;;
47413;SDS011;33163;0.000;0.000;2023-03-23T08:52:36;9.43;;;2.17;;
47413;SDS011;33163;0.000;0.000;2023-03-23T08:55:04;12.02;;;2.25;;
47413;SDS011;33163;0.000;0.000;2023-03-23T08:57:33;8.50;;;2.90;;
47413;SDS011;33163;0.000;0.000;2023-03-23T09:00:01;10.52;;;2.58;;
47413;SDS011;33163;0.000;0.000;2023-03-23T09:02:40;6.32;;;1.85;;
47413;SDS011;33163;0.000;0.000;2023-03-23T09:05:07;10.25;;;2.75;;
47413;SDS011;33163;0.000;0.000;2023-03-23T09:07:35;8.68;;;2.30;;
47413;SDS011;33163;0.000;0.000;2023-03-23T09:10:01;6.00;;;1.88;;
47413;SDS011;33163;0.000;0.000;2023-03-23T09:12:29;8.90;;;2.20;;
47413;SDS011;33163;0.000;0.000;2023-03-23T09:14:56;9.60;;;2.40;;
47413;SDS011;33163;0.000;0.000;2023-03-23T09:17:22;8.93;;;2.28;;
47413;SDS011;33163;0.000;0.000;2023-03-23T09:19:51;8.68;;;2.80;;
47413;SDS011;33163;0.000;0.000;2023-03-23T09:22:18;5.88;;;2.00;;
47413;SDS011;33163;0.000;0.000;2023-03-23T09:24:48;12.23;;;2.83;;
47413;SDS011;33163;0.000;0.000;2023-03-23T09:27:16;11.75;;;2.42;;
47413;SDS011;33163;0.000;0.000;2023-03-23T09:29:44;11.65;;;2.33;;
47413;SDS011;33163;0.000;0.000;2023-03-23T09:32:13;8.82;;;2.40;;
47413;SDS011;33163;0.000;0.000;2023-03-23T09:34:40;12.23;;;2.50;;
47413;SDS011;33163;0.000;0.000;2023-03-23T09:37:08;11.45;;;2.25;;
47413;SDS011;33163;0.000;0.000;2023-03-23T09:39:38;6.97;;;2.40;;
47413;SDS011;33163;0.000;0.000;2023-03-23T09:42:11;10.82;;;2.63;;
47413;SDS011;33163;0.000;0.000;2023-03-23T09:44:50;13.57;;;2.63;;
47413;SDS011;33163;0.000;0.000;2023-03-23T09:47:25;9.45;;;2.45;;
47413;SDS011;33163;0.000;0.000;2023-03-23T09:50:02;13.43;;;2.60;;
47413;SDS011;33163;0.000;0.000;2023-03-23T09:52:37;7.53;;;2.65;;
47413;SDS011;33163;0.000;0.000;2023-03-23T09:55:09;8.88;;;1.90;;
47413;SDS011;33163;0.000;0.000;2023-03-23T09:57:40;9.30;;;2.95;;
47413;SDS011;33163;0.000;0.000;2023-03-23T10:00:14;7.75;;;2.22;;
47413;SDS011;33163;0.000;0.000;2023-03-23T10:02:47;11.27;;;3.17;;
47413;SDS011;33163;0.000;0.000;2023-03-23T10:05:25;6.57;;;2.80;;
47413;SDS011;33163;0.000;0.000;2023-03-23T10:07:57;9.05;;;2.70;;
47413;SDS011;33163;0.000;0.000;2023-03-23T10:10:27;11.82;;;2.92;;
47413;SDS011;33163;0.000;0.000;2023-03-23T10:13:03;14.13;;;2.85;;
47413;SDS011;33163;0.000;0.000;2023-03-23T10:15:37;9.23;;;2.72;;
47413;SDS011;33163;0.000;0.000;2023-03-23T10:18:10;5.95;;;2.30;;
47413;SDS011;33163;0.000;0.000;2023-03-23T10:20:42;11.55;;;2.75;;
47413;SDS011;33163;0.000;0.000;2023-03-23T10:23:23;15.52;;;3.85;;
47413;SDS011;33163;0.000;0.000;2023-03-23T10:26:05;10.77;;;3.00;;
47413;SDS011;33163;0.000;0.000;2023-03-23T10:28:38;8.60;;;2.50;;
47413;SDS011;33163;0.000;0.000;2023-03-23T10:31:08;9.45;;;2.55;;
47413;SDS011;33163;0.000;0.000;2023-03-23T10:33:40;10.20;;;2.63;;
47413;SDS011;33163;0.000;0.000;2023-03-23T10:36:10;12.32;;;3.75;;
47413;SDS011;33163;0.000;0.000;2023-03-23T10:38:43;9.70;;;2.60;;
47413;SDS011;33163;0.000;0.000;2023-03-23T10:41:13;10.80;;;2.50;;
47413;SDS011;33163;0.000;0.000;2023-03-23T10:43:42;9.00;;;2.67;;
47413;SDS011;33163;0.000;0.000;2023-03-23T10:46:16;9.55;;;2.75;;
47413;SDS011;33163;0.000;0.000;2023-03-23T10:48:48;11.47;;;2.77;;
47413;SDS011;33163;0.000;0.000;2023-03-23T10:51:19;10.98;;;2.35;;
47413;SDS011;33163;0.000;0.000;2023-03-23T10:53:51;10.02;;;2.38;;
47413;SDS011;33163;0.000;0.000;2023-03-23T10:56:24;10.57;;;2.60;;
47413;SDS011;33163;0.000;0.000;2023-03-23T10:58:52;9.88;;;2.38;;
47413;SDS011;33163;0.000;0.000;2023-03-23T11:01:20;13.00;;;3.50;;
47413;SDS011;33163;0.000;0.000;2023-03-23T11:03:56;13.73;;;3.08;;
47413;SDS011;33163;0.000;0.000;2023-03-23T11:06:25;9.73;;;3.05;;
47413;SDS011;33163;0.000;0.000;2023-03-23T11:08:56;8.25;;;2.55;;
47413;SDS011;33163;0.000;0.000;2023-03-23T11:11:25;10.13;;;2.50;;
47413;SDS011;33163;0.000;0.000;2023-03-23T11:13:58;10.20;;;3.15;;
47413;SDS011;33163;0.000;0.000;2023-03-23T11:16:27;16.20;;;2.83;;
47413;SDS011;33163;0.000;0.000;2023-03-23T11:18:56;11.82;;;2.90;;
47413;SDS011;33163;0.000;0.000;2023-03-23T11:21:25;12.05;;;2.45;;
47413;SDS011;33163;0.000;0.000;2023-03-23T11:23:53;11.98;;;2.72;;
47413;SDS011;33163;0.000;0.000;2023-03-23T11:26:24;8.98;;;2.58;;
47413;SDS011;33163;0.000;0.000;2023-03-23T11:28:54;12.23;;;3.22;;
47413;SDS011;33163;0.000;0.000;2023-03-23T11:31:24;12.90;;;2.53;;
47413;SDS011;33163;0.000;0.000;2023-03-23T11:33:55;11.48;;;2.50;;
47413;SDS011;33163;0.000;0.000;2023-03-23T11:36:29;5.43;;;2.33;;
47413;SDS011;33163;0.000;0.000;2023-03-23T11:39:01;12.13;;;2.97;;
47413;SDS011;33163;0.000;0.000;2023-03-23T11:41:33;9.05;;;2.47;;
47413;SDS011;33163;0.000;0.000;2023-03-23T11:44:03;9.35;;;2.33;;
47413;SDS011;33163;0.000;0.000;2023-03-23T11:46:39;6.30;;;1.98;;
47413;SDS011;33163;0.000;0.000;2023-03-23T11:49:15;7.75;;;2.33;;
47413;SDS011;33163;0.000;0.000;2023-03-23T11:51:49;9.65;;;2.75;;
47413;SDS011;33163;0.000;0.000;2023-03-23T11:54:28;7.57;;;2.83;;
47413;SDS011;33163;0.000;0.000;2023-03-23T11:56:58;6.78;;;1.92;;
47413;SDS011;33163;0.000;0.000;2023-03-23T11:59:28;7.20;;;2.35;;
47413;SDS011;33163;0.000;0.000;2023-03-23T12:02:00;9.88;;;3.00;;
47413;SDS011;33163;0.000;0.000;2023-03-23T12:04:40;10.15;;;2.33;;
47413;SDS011;33163;0.000;0.000;2023-03-23T12:07:32;11.65;;;3.10;;
47413;SDS011;33163;0.000;0.000;2023-03-23T12:10:25;5.75;;;2.00;;
47413;SDS011;33163;0.000;0.000;2023-03-23T12:13:12;11.50;;;3.28;;
47413;SDS011;33163;0.000;0.000;2023-03-23T12:15:53;8.15;;;2.30;;
47413;SDS011;33163;0.000;0.000;2023-03-23T12:18:33;9.05;;;2.70;;
47413;SDS011;33163;0.000;0.000;2023-03-23T12:21:09;6.60;;;2.63;;
47413;SDS011;33163;0.000;0.000;2023-03-23T12:23:44;6.78;;;2.08;;
47413;SDS011;33163;0.000;0.000;2023-03-23T12:26:21;6.63;;;2.25;;
47413;SDS011;33163;0.000;0.000;2023-03-23T12:28:58;6.53;;;2.20;;
47413;SDS011;33163;0.000;0.000;2023-03-23T12:31:32;5.93;;;2.03;;
47413;SDS011;33163;0.000;0.000;2023-03-23T12:34:06;6.47;;;2.00;;
47413;SDS011;33163;0.000;0.000;2023-03-23T12:36:43;9.00;;;2.67;;
47413;SDS011;33163;0.000;0.000;2023-03-23T12:39:32;7.07;;;2.22;;
47413;SDS011;33163;0.000;0.000;2023-03-23T12:42:16;5.47;;;1.90;;
47413;SDS011;33163;0.000;0.000;2023-03-23T12:44:52;4.93;;;2.20;;
47413;SDS011;33163;0.000;0.000;2023-03-23T12:47:24;9.90;;;2.63;;
47413;SDS011;33163;0.000;0.000;2023-03-23T12:49:58;7.70;;;2.15;;
47413;SDS011;33163;0.000;0.000;2023-03-23T12:52:30;8.57;;;2.30;;
47413;SDS011;33163;0.000;0.000;2023-03-23T12:55:02;7.53;;;2.22;;
47413;SDS011;33163;0.000;0.000;2023-03-23T12:57:35;7.82;;;2.35;;
47413;SDS011;33163;0.000;0.000;2023-03-23T13:00:12;9.60;;;2.45;;
47413;SDS011;33163;0.000;0.000;2023-03-23T13:02:44;5.93;;;2.30;;
47413;SDS011;33163;0.000;0.000;2023-03-23T13:05:26;10.15;;;2.45;;
47413;SDS011;33163;0.000;0.000;2023-03-23T13:07:59;8.80;;;2.30;;
47413;SDS011;33163;0.000;0.000;2023-03-23T13:10:29;7.97;;;2.38;;
47413;SDS011;33163;0.000;0.000;2023-03-23T13:13:02;8.68;;;2.58;;
47413;SDS011;33163;0.000;0.000;2023-03-23T13:15:32;6.15;;;2.13;;
47413;SDS011;33163;0.000;0.000;2023-03-23T13:18:05;8.27;;;2.63;;
47413;SDS011;33163;0.000;0.000;2023-03-23T13:20:41;9.35;;;2.10;;
47413;SDS011;33163;0.000;0.000;2023-03-23T13:23:17;8.50;;;2.30;;
47413;SDS011;33163;0.000;0.000;2023-03-23T13:25:49;6.82;;;2.33;;
47413;SDS011;33163;0.000;0.000;2023-03-23T13:28:20;8.57;;;2.50;;
47413;SDS011;33163;0.000;0.000;2023-03-23T13:30:57;10.10;;;2.70;;
47413;SDS011;33163;0.000;0.000;2023-03-23T13:33:28;10.73;;;2.53;;
47413;SDS011;33163;0.000;0.000;2023-03-23T13:35:57;8.45;;;2.00;;
47413;SDS011;33163;0.000;0.000;2023-03-23T13:38:32;7.22;;;2.47;;
47413;SDS011;33163;0.000;0.000;2023-03-23T13:41:05;9.27;;;2.40;;
47413;SDS011;33163;0.000;0.000;2023-03-23T13:43:36;6.03;;;2.78;;
47413;SDS011;33163;0.000;0.000;2023-03-23T13:46:11;9.98;;;2.60;;
47413;SDS011;33163;0.000;0.000;2023-03-23T13:48:50;9.10;;;2.33;;
47413;SDS011;33163;0.000;0.000;2023-03-23T13:51:33;8.70;;;2.22;;
47413;SDS011;33163;0.000;0.000;2023-03-23T13:54:13;6.15;;;2.30;;
47413;SDS011;33163;0.000;0.000;2023-03-23T13:56:47;9.82;;;2.83;;
47413;SDS011;33163;0.000;0.000;2023-03-23T13:59:30;10.67;;;2.90;;
47413;SDS011;33163;0.000;0.000;2023-03-23T14:05:07;13.52;;;3.42;;
47413;SDS011;33163;0.000;0.000;2023-03-23T14:10:20;7.35;;;1.98;;
47413;SDS011;33163;0.000;0.000;2023-03-23T14:12:49;10.15;;;2.80;;
47413;SDS011;33163;0.000;0.000;2023-03-23T14:15:19;13.80;;;2.85;;
47413;SDS011;33163;0.000;0.000;2023-03-23T14:17:46;9.20;;;2.72;;
47413;SDS011;33163;0.000;0.000;2023-03-23T14:20:17;9.23;;;2.55;;
47413;SDS011;33163;0.000;0.000;2023-03-23T14:22:52;9.63;;;2.78;;
47413;SDS011;33163;0.000;0.000;2023-03-23T14:25:20;3.95;;;2.00;;
47413;SDS011;33163;0.000;0.000;2023-03-23T14:27:50;8.10;;;2.30;;
47413;SDS011;33163;0.000;0.000;2023-03-23T14:30:18;8.50;;;2.95;;
47413;SDS011;33163;0.000;0.000;2023-03-23T14:32:47;10.38;;;3.08;;
47413;SDS011;33163;0.000;0.000;2023-03-23T14:35:17;9.77;;;2.65;;
47413;SDS011;33163;0.000;0.000;2023-03-23T14:37:48;8.23;;;2.58;;
47413;SDS011;33163;0.000;0.000;2023-03-23T14:40:16;15.15;;;2.45;;
47413;SDS011;33163;0.000;0.000;2023-03-23T14:42:44;7.72;;;3.13;;
47413;SDS011;33163;0.000;0.000;2023-03-23T14:45:12;12.02;;;3.35;;
47413;SDS011;33163;0.000;0.000;2023-03-23T14:47:44;13.77;;;3.03;;
47413;SDS011;33163;0.000;0.000;2023-03-23T14:50:22;8.07;;;2.60;;
47413;SDS011;33163;0.000;0.000;2023-03-23T14:52:51;13.85;;;2.72;;
47413;SDS011;33163;0.000;0.000;2023-03-23T14:55:18;11.82;;;2.55;;
47413;SDS011;33163;0.000;0.000;2023-03-23T14:57:47;9.93;;;3.05;;
47413;SDS011;33163;0.000;0.000;2023-03-23T15:00:14;8.32;;;2.78;;
47413;SDS011;33163;0.000;0.000;2023-03-23T15:02:49;9.10;;;2.67;;
47413;SDS011;33163;0.000;0.000;2023-03-23T15:05:20;9.77;;;2.40;;
47413;SDS011;33163;0.000;0.000;2023-03-23T15:07:52;9.98;;;2.22;;
47413;SDS011;33163;0.000;0.000;2023-03-23T15:10:24;8.35;;;3.05;;
47413;SDS011;33163;0.000;0.000;2023-03-23T15:12:51;12.93;;;2.67;;
47413;SDS011;33163;0.000;0.000;2023-03-23T15:15:24;10.45;;;2.60;;
47413;SDS011;33163;0.000;0.000;2023-03-23T15:17:54;12.25;;;2.97;;
47413;SDS011;33163;0.000;0.000;2023-03-23T15:20:23;10.73;;;3.53;;
47413;SDS011;33163;0.000;0.000;2023-03-23T15:22:52;12.27;;;2.47;;
47413;SDS011;33163;0.000;0.000;2023-03-23T15:25:20;11.00;;;2.92;;
47413;SDS011;33163;0.000;0.000;2023-03-23T15:27:49;10.25;;;2.83;;
47413;SDS011;33163;0.000;0.000;2023-03-23T15:30:27;12.55;;;2.92;;
47413;SDS011;33163;0.000;0.000;2023-03-23T15:33:01;11.10;;;2.58;;